This is the latest recevied weather packets stored in our database for station/object KB1JDX. If no packets are shown the sender has not sent any weather packets the latest 10 day(s).
| Time | Temp. | Humidity | Pressure | Rain* | Wind** | Luminosity | Snow |
|---|---|---|---|---|---|---|---|
| 1787627895 | 18.33° C | 100% | 1014.2 hPa | 0 mm | 0 m/s | - | - |
| 1787627826 | 18.33° C | 100% | 1014.2 hPa | 0 mm | 0 m/s | - | - |
| 1787626693 | 18.33° C | 100% | 1014.1 hPa | 0 mm | 0 m/s | - | - |
| 1787624226 | 18.33° C | 100% | 1014.1 hPa | 0 mm | 0 m/s | - | - |
| 1787621893 | 18.89° C | 100% | 1013.9 hPa | 0 mm | 0 m/s | - | - |
| 1787620626 | 19.44° C | 100% | 1013.7 hPa | 0 mm | 0 m/s | - | - |
| 1787618294 | 20.56° C | 100% | 1013.7 hPa | 0 mm | 0 m/s | - | - |
| 1787617097 | 21.11° C | 26% | 1013.6 hPa | 0 mm | 0 m/s | - | - |
| 1787617026 | 21.11° C | 27% | 1013.4 hPa | 0 mm | 0 m/s | - | - |
| 1787613493 | 23.33° C | 56% | 1012.9 hPa | 0 mm | 0 m/s | - | - |
| 1787613426 | 23.33° C | 56% | 1012.8 hPa | 0 mm | 0 m/s | - | - |
| 1787612297 | 23.89° C | 57% | 1012.8 hPa | 0 mm | 0 m/s | - | - |
| 1787611093 | 24.44° C | 56% | 1012.8 hPa | 0 mm | 0 m/s | - | - |
| 1787609826 | 25° C | 55% | 1012.8 hPa | 0 mm | 0 m/s | - | - |
| 1787608693 | 25° C | 53% | 1012.7 hPa | 0 mm | 0 m/s | - | - |
| 1787607493 | 25.56° C | 52% | 1012.5 hPa | 0 mm | 4.47 m/s, 236° | - | - |
| 1787606226 | 26.11° C | 52% | 1012.4 hPa | 0 mm | 0 m/s | - | - |
| 1787605093 | 26.11° C | 52% | 1012.3 hPa | 0 mm | 2.24 m/s, 207° | - | - |
| 1787602693 | 26.67° C | 52% | 1012.2 hPa | 0 mm | 0 m/s | - | - |
| 1787602626 | 26.67° C | 51% | 1012.2 hPa | 0 mm | 0.45 m/s, 223° | - | - |
| 1787601496 | 26.67° C | 52% | 1012.3 hPa | 0 mm | 0 m/s | - | - |
| 1787600293 | 26.67° C | 51% | 1012.2 hPa | 0 mm | 0 m/s | - | - |
| 1787599094 | 27.22° C | 50% | 1012.3 hPa | 0 mm | 0 m/s | - | - |
| 1787599026 | 26.67° C | 50% | 1012.2 hPa | 0 mm | 0.45 m/s, 220° | - | - |
| 1787597894 | 26.11° C | 49% | 1012.3 hPa | 0 mm | 0.45 m/s, 207° | - | - |
* Rain latest hour (hover to see other rain measurements)
** Current wind speed in m/s (hover to see current wind gust speed)